createdAt,value
2023-03-30T00:02:53.910Z,100633.28
2023-03-30T00:05:57.115Z,100633.69
2023-03-30T00:08:59.876Z,100633.28
2023-03-30T00:12:03.839Z,100637.16
2023-03-30T00:15:08.010Z,100621.84
2023-03-30T00:18:10.864Z,100620.19
2023-03-30T00:21:13.555Z,100620.00
2023-03-30T00:24:16.027Z,100631.66
2023-03-30T00:27:18.326Z,100619.59
2023-03-30T00:30:20.860Z,100618.16
2023-03-30T00:33:33.639Z,100629.16
2023-03-30T00:36:46.659Z,100620.97
2023-03-30T00:39:49.164Z,100613.44
2023-03-30T00:42:51.497Z,100609.31
2023-03-30T00:45:56.386Z,100623.19
2023-03-30T00:49:10.514Z,100597.69
2023-03-30T00:52:13.160Z,100584.63
2023-03-30T00:55:15.548Z,100593.44
2023-03-30T00:58:19.206Z,100581.50
2023-03-30T01:01:28.852Z,100578.47
2023-03-30T01:04:31.419Z,100584.81
2023-03-30T01:07:35.562Z,100577.28
2023-03-30T01:10:37.814Z,100574.38
2023-03-30T01:13:44.262Z,100566.19
2023-03-30T01:16:56.278Z,100575.78
2023-03-30T01:20:24.323Z,100577.00
2023-03-30T01:23:48.271Z,100575.81
2023-03-30T01:26:55.211Z,100568.63
2023-03-30T01:30:06.928Z,100558.66
2023-03-30T01:33:46.358Z,100553.50
2023-03-30T01:37:27.444Z,100553.50
2023-03-30T01:40:39.686Z,100534.72
2023-03-30T01:44:06.640Z,100541.63
2023-03-30T01:47:17.722Z,100540.41
2023-03-30T01:50:26.710Z,100543.47
2023-03-30T01:53:43.870Z,100544.09
2023-03-30T01:56:53.425Z,100541.31
2023-03-30T01:59:58.980Z,100553.63
2023-03-30T02:03:05.927Z,100545.69
2023-03-30T02:06:19.287Z,100538.72
2023-03-30T02:09:23.897Z,100542.75
2023-03-30T02:12:30.278Z,100540.69
2023-03-30T02:15:37.612Z,100545.28
2023-03-30T02:18:39.950Z,100538.25
2023-03-30T02:21:44.119Z,100540.28
2023-03-30T02:24:49.066Z,100530.03
2023-03-30T02:27:53.188Z,100521.81
2023-03-30T02:30:55.718Z,100528.75
2023-03-30T02:34:13.336Z,100509.06
2023-03-30T02:37:24.946Z,100522.25
2023-03-30T02:40:42.423Z,100525.41
2023-03-30T02:44:06.696Z,100532.53
2023-03-30T02:47:22.963Z,100522.72
2023-03-30T02:50:47.588Z,100534.06
2023-03-30T02:54:26.805Z,100525.28
2023-03-30T02:58:05.166Z,100528.19
2023-03-30T03:01:36.404Z,100534.47
2023-03-30T03:04:47.710Z,100526.53
2023-03-30T03:08:14.674Z,100510.47
2023-03-30T03:11:18.033Z,100530.56
2023-03-30T03:14:21.014Z,100548.13
2023-03-30T03:17:23.621Z,100536.53
2023-03-30T03:20:30.419Z,100539.72
2023-03-30T03:23:34.685Z,100529.63
2023-03-30T03:26:38.015Z,100513.13
2023-03-30T03:29:41.251Z,100514.97
2023-03-30T03:32:45.855Z,100534.16
2023-03-30T03:35:48.666Z,100536.00
2023-03-30T03:38:52.231Z,100539.13
2023-03-30T03:41:54.590Z,100538.09
2023-03-30T03:44:56.886Z,100540.81
2023-03-30T03:47:59.296Z,100552.53
2023-03-30T03:51:18.642Z,100527.47
2023-03-30T03:54:20.954Z,100528.66
2023-03-30T03:57:24.843Z,100518.00
2023-03-30T04:00:27.372Z,100516.41
2023-03-30T04:03:29.864Z,100534.44
2023-03-30T04:06:32.171Z,100517.66
2023-03-30T04:09:34.424Z,100518.78
2023-03-30T04:12:58.431Z,100494.16
2023-03-30T04:16:11.262Z,100502.53
2023-03-30T04:19:31.652Z,100501.25
2023-03-30T04:22:53.565Z,100500.81
2023-03-30T04:26:02.185Z,100502.03
2023-03-30T04:29:33.466Z,100491.75
2023-03-30T04:33:04.812Z,100479.78
2023-03-30T04:36:31.107Z,100495.69
2023-03-30T04:40:09.845Z,100507.53
2023-03-30T04:43:38.107Z,100492.50
2023-03-30T04:46:57.060Z,100505.59
2023-03-30T04:50:22.716Z,100502.00
2023-03-30T04:53:43.536Z,100487.69
2023-03-30T04:57:04.761Z,100489.25
2023-03-30T05:00:22.055Z,100488.84
2023-03-30T05:03:43.471Z,100480.28
2023-03-30T05:07:23.962Z,100481.22
2023-03-30T05:10:32.346Z,100488.56
2023-03-30T05:13:57.542Z,100480.25
2023-03-30T05:17:17.623Z,100496.75
2023-03-30T05:20:35.042Z,100477.56
2023-03-30T05:23:39.745Z,100473.31
2023-03-30T05:26:57.217Z,100486.56
2023-03-30T05:30:52.995Z,100498.63
2023-03-30T05:34:13.817Z,100488.63
2023-03-30T05:37:35.116Z,100481.47
2023-03-30T05:40:57.510Z,100475.56
2023-03-30T05:44:23.923Z,100473.72
2023-03-30T05:47:31.860Z,100466.38
2023-03-30T05:50:52.237Z,100480.06
2023-03-30T05:54:04.175Z,100476.16
2023-03-30T05:57:30.397Z,100478.03
2023-03-30T06:00:58.996Z,100476.59
2023-03-30T06:04:49.430Z,100472.91
2023-03-30T06:07:53.209Z,100459.41
2023-03-30T06:10:56.990Z,100467.19
2023-03-30T06:14:01.846Z,100479.66
2023-03-30T06:17:04.924Z,100469.03
2023-03-30T06:20:13.861Z,100471.88
2023-03-30T06:23:20.186Z,100465.13
2023-03-30T06:26:23.650Z,100468.41
2023-03-30T06:29:26.172Z,100456.56
2023-03-30T06:32:28.628Z,100457.56
2023-03-30T06:35:33.887Z,100446.94
2023-03-30T06:38:38.699Z,100439.16
2023-03-30T06:41:44.472Z,100438.16
2023-03-30T06:45:06.672Z,100439.16
2023-03-30T06:48:09.119Z,100444.56
2023-03-30T06:51:14.669Z,100440.69
2023-03-30T06:54:21.702Z,100448.00
2023-03-30T06:57:32.594Z,100454.50
2023-03-30T07:00:36.834Z,100458.19
2023-03-30T07:04:17.760Z,100444.88
2023-03-30T07:07:39.191Z,100449.16
2023-03-30T07:10:42.995Z,100448.84
2023-03-30T07:13:47.791Z,100447.81
2023-03-30T07:16:50.175Z,100442.06
2023-03-30T07:19:52.916Z,100448.47
2023-03-30T07:22:55.240Z,100434.28
2023-03-30T07:25:57.881Z,100437.16
2023-03-30T07:29:11.593Z,100437.06
2023-03-30T07:32:17.810Z,100444.03
2023-03-30T07:35:20.359Z,100437.66
2023-03-30T07:38:22.954Z,100437.81
2023-03-30T07:41:28.358Z,100447.41
2023-03-30T07:44:33.538Z,100445.09
2023-03-30T07:47:41.003Z,100459.00
2023-03-30T07:50:43.847Z,100449.97
2023-03-30T07:53:48.400Z,100444.22
2023-03-30T07:56:58.194Z,100444.88
2023-03-30T08:00:01.013Z,100453.38
2023-03-30T08:03:28.717Z,100448.94
2023-03-30T08:06:31.405Z,100449.09
2023-03-30T08:09:35.995Z,100447.72
2023-03-30T08:12:38.354Z,100435.56
2023-03-30T08:15:41.923Z,100436.50
2023-03-30T08:18:44.458Z,100436.03
2023-03-30T08:21:47.272Z,100433.47
2023-03-30T08:24:49.571Z,100419.53
2023-03-30T08:27:51.891Z,100427.69
2023-03-30T08:30:54.795Z,100406.81
2023-03-30T08:33:57.329Z,100421.19
2023-03-30T08:36:59.973Z,100406.88
2023-03-30T08:40:02.278Z,100413.88
2023-03-30T08:43:19.705Z,100437.25
2023-03-30T08:46:22.244Z,100428.84
2023-03-30T08:49:26.692Z,100424.38
2023-03-30T08:52:29.152Z,100428.34
2023-03-30T08:55:47.748Z,100433.09
2023-03-30T08:59:26.666Z,100433.41
2023-03-30T09:02:31.240Z,100426.88
2023-03-30T09:05:38.465Z,100417.81
2023-03-30T09:08:40.770Z,100403.16
2023-03-30T09:11:43.226Z,100409.41
2023-03-30T09:14:56.182Z,100395.16
2023-03-30T09:18:04.630Z,100397.78
2023-03-30T09:21:10.720Z,100397.13
2023-03-30T09:24:18.854Z,100392.00
2023-03-30T09:27:45.782Z,100399.72
2023-03-30T09:31:03.193Z,100402.34
2023-03-30T09:34:28.301Z,100391.56
2023-03-30T09:37:31.299Z,100367.63
2023-03-30T09:41:07.667Z,100385.09
2023-03-30T09:44:16.942Z,100369.97
2023-03-30T09:47:22.211Z,100379.28
2023-03-30T09:50:27.313Z,100355.38
2023-03-30T09:54:03.947Z,100361.41
2023-03-30T09:57:22.663Z,100342.25
2023-03-30T10:00:33.239Z,100357.88
2023-03-30T10:03:35.993Z,100347.44
2023-03-30T10:06:45.018Z,100357.72
2023-03-30T10:09:47.425Z,100346.84
2023-03-30T10:13:04.984Z,100349.03
2023-03-30T10:16:27.901Z,100346.34
2023-03-30T10:19:36.184Z,100343.16
2023-03-30T10:22:53.163Z,100333.53
2023-03-30T10:26:02.945Z,100287.34
2023-03-30T10:29:07.778Z,100325.50
2023-03-30T10:32:14.673Z,100325.88
2023-03-30T10:35:23.683Z,100315.22
2023-03-30T10:38:31.327Z,100298.03
2023-03-30T10:41:35.894Z,100290.84
2023-03-30T10:45:05.381Z,100297.81
2023-03-30T10:48:13.817Z,100296.66
2023-03-30T10:51:17.934Z,100291.13
2023-03-30T10:54:29.510Z,100282.53
2023-03-30T10:57:50.576Z,100279.16
2023-03-30T11:01:30.581Z,100282.72
2023-03-30T11:04:43.393Z,100274.06
2023-03-30T11:07:57.621Z,100275.34
2023-03-30T11:11:00.542Z,100268.69
2023-03-30T11:14:16.674Z,100271.44
2023-03-30T11:17:44.682Z,100279.44
2023-03-30T11:21:00.922Z,100276.66
2023-03-30T11:24:21.281Z,100260.94
2023-03-30T11:27:30.854Z,100266.78
2023-03-30T11:30:34.230Z,100268.88
2023-03-30T11:33:42.668Z,100269.84
2023-03-30T11:36:51.636Z,100257.97
2023-03-30T11:40:13.961Z,100266.75
2023-03-30T11:43:20.848Z,100254.94
2023-03-30T11:46:45.979Z,100250.66
2023-03-30T11:49:59.905Z,100218.59
2023-03-30T11:53:26.282Z,100242.97
2023-03-30T11:56:47.015Z,100223.88
2023-03-30T12:00:09.849Z,100221.91
2023-03-30T12:03:12.457Z,100223.25
2023-03-30T12:06:29.359Z,100223.25
2023-03-30T12:09:36.312Z,100213.09
2023-03-30T12:12:41.957Z,100205.56
2023-03-30T12:16:04.517Z,100192.31
2023-03-30T12:19:22.347Z,100185.19
2023-03-30T12:22:31.957Z,100171.34
2023-03-30T12:26:07.273Z,100166.81
2023-03-30T12:32:26.265Z,100161.50
2023-03-30T12:35:57.206Z,100164.38
2023-03-30T12:39:05.582Z,100153.81
2023-03-30T12:42:26.256Z,100130.19
2023-03-30T12:45:33.401Z,100138.97
2023-03-30T12:48:54.206Z,100115.81
2023-03-30T12:52:10.761Z,100127.13
2023-03-30T12:55:17.320Z,100109.81
2023-03-30T12:58:26.890Z,100108.78
2023-03-30T13:01:48.315Z,100109.81
2023-03-30T13:04:51.114Z,100090.94
2023-03-30T13:07:54.720Z,100080.53
2023-03-30T13:11:07.841Z,100100.69
2023-03-30T13:14:31.398Z,100101.69
2023-03-30T13:18:01.166Z,100088.56
2023-03-30T13:21:15.310Z,100097.72
2023-03-30T13:24:32.811Z,100075.59
2023-03-30T13:27:37.326Z,100079.59
2023-03-30T13:30:39.859Z,100092.50
2023-03-30T13:33:45.672Z,100071.81
2023-03-30T13:36:57.448Z,100093.00
2023-03-30T13:40:24.341Z,100077.47
2023-03-30T13:43:36.612Z,100076.81
2023-03-30T13:46:44.827Z,100087.81
2023-03-30T13:49:58.780Z,100087.03
2023-03-30T13:53:03.747Z,100061.22
2023-03-30T13:56:08.500Z,100062.19
2023-03-30T13:59:14.615Z,100050.00
2023-03-30T14:02:18.404Z,100051.66
2023-03-30T14:05:21.973Z,100041.50
2023-03-30T14:08:27.396Z,100031.28
2023-03-30T14:11:36.722Z,100030.78
2023-03-30T14:14:47.369Z,100026.97
2023-03-30T14:17:59.077Z,100003.50
2023-03-30T14:21:04.585Z,100012.97
2023-03-30T14:24:17.087Z,100018.03
2023-03-30T14:27:19.432Z,100001.84
2023-03-30T14:30:24.890Z,100001.66
2023-03-30T14:33:27.245Z,99987.28
2023-03-30T14:36:29.849Z,99982.31
2023-03-30T14:39:34.183Z,99970.56
2023-03-30T14:42:36.511Z,99967.97
2023-03-30T14:45:38.936Z,99948.66
2023-03-30T14:48:43.631Z,99950.25
2023-03-30T14:51:52.111Z,99944.69
2023-03-30T14:55:06.748Z,99924.03
2023-03-30T14:58:14.811Z,99927.22
2023-03-30T15:01:21.213Z,99927.75
2023-03-30T15:04:34.727Z,99918.94
2023-03-30T15:07:37.111Z,99908.38
2023-03-30T15:10:51.088Z,99914.09
2023-03-30T15:13:57.951Z,99906.63
2023-03-30T15:17:01.231Z,99896.69
2023-03-30T15:20:07.427Z,99900.94
2023-03-30T15:23:12.723Z,99894.50
2023-03-30T15:26:15.633Z,99879.16
2023-03-30T15:29:19.421Z,99879.44
2023-03-30T15:32:40.145Z,99884.25
2023-03-30T15:35:42.789Z,99870.19
2023-03-30T15:38:58.843Z,99894.63
2023-03-30T15:42:04.622Z,99887.63
2023-03-30T15:45:12.699Z,99905.50
2023-03-30T15:48:18.253Z,99917.38
2023-03-30T15:51:38.039Z,99915.44
2023-03-30T15:54:45.194Z,99929.69
2023-03-30T15:57:49.115Z,99929.50
2023-03-30T16:00:51.693Z,99920.06
2023-03-30T16:03:56.216Z,99938.34
2023-03-30T16:06:58.605Z,99923.81
2023-03-30T16:10:00.939Z,99920.31
2023-03-30T16:13:03.290Z,99893.16
2023-03-30T16:16:05.832Z,99892.09
2023-03-30T16:19:17.572Z,99905.00
2023-03-30T16:22:19.964Z,99908.69
2023-03-30T16:25:31.264Z,99906.84
2023-03-30T16:28:42.738Z,99898.19
2023-03-30T16:31:45.423Z,99893.25
2023-03-30T16:34:48.622Z,99891.06
2023-03-30T16:37:50.907Z,99891.13
2023-03-30T16:40:57.847Z,99876.06
2023-03-30T16:44:00.478Z,99862.19
2023-03-30T16:47:02.812Z,99868.22
2023-03-30T16:50:41.464Z,99889.84
2023-03-30T16:53:43.843Z,99897.25
2023-03-30T16:56:46.516Z,99893.91
2023-03-30T16:59:48.838Z,99892.75
2023-03-30T17:02:51.778Z,99888.41
2023-03-30T17:05:54.184Z,99901.78
2023-03-30T17:08:56.555Z,99898.81
2023-03-30T17:11:59.381Z,99901.91
2023-03-30T17:15:01.687Z,99883.94
2023-03-30T17:18:09.965Z,99890.28
2023-03-30T17:21:16.500Z,99879.63
2023-03-30T17:24:19.126Z,99865.44
2023-03-30T17:27:21.507Z,99864.88
2023-03-30T17:30:34.582Z,99870.19
2023-03-30T17:33:36.992Z,99880.38
2023-03-30T17:36:39.347Z,99874.59
2023-03-30T17:39:41.790Z,99876.06
2023-03-30T17:42:44.573Z,99866.50
2023-03-30T17:45:47.065Z,99860.03
2023-03-30T17:48:51.616Z,99859.50
2023-03-30T17:51:56.814Z,99846.44
2023-03-30T17:54:59.322Z,99849.56
2023-03-30T17:58:01.728Z,99843.72
2023-03-30T18:01:07.504Z,99856.28
2023-03-30T18:04:10.600Z,99845.03
2023-03-30T18:07:13.016Z,99834.97
2023-03-30T18:10:23.696Z,99840.47
2023-03-30T18:13:27.521Z,99832.06
2023-03-30T18:16:30.023Z,99827.38
2023-03-30T18:19:32.355Z,99829.00
2023-03-30T18:22:34.638Z,99829.25
2023-03-30T18:25:39.545Z,99835.66
2023-03-30T18:28:43.604Z,99850.72
2023-03-30T18:31:47.120Z,99862.38
2023-03-30T18:34:50.516Z,99889.34
2023-03-30T18:37:54.011Z,99901.28
2023-03-30T18:40:58.517Z,99922.50
2023-03-30T18:44:00.965Z,99935.41
2023-03-30T18:47:03.393Z,99939.22
2023-03-30T18:50:30.552Z,99942.22
2023-03-30T18:53:33.169Z,99922.38
2023-03-30T18:56:37.922Z,99912.31
2023-03-30T18:59:41.105Z,99908.28
2023-03-30T19:02:43.599Z,99907.72
2023-03-30T19:05:46.398Z,99901.28
2023-03-30T19:08:49.375Z,99898.06
2023-03-30T19:11:51.659Z,99886.25
2023-03-30T19:14:54.366Z,99882.03
2023-03-30T19:17:56.952Z,99874.75
2023-03-30T19:20:59.254Z,99860.16
2023-03-30T19:24:01.558Z,99815.34
2023-03-30T19:27:07.804Z,99806.34
2023-03-30T19:30:13.492Z,99829.78
2023-03-30T19:33:16.857Z,99827.19
2023-03-30T19:36:19.742Z,99830.75
2023-03-30T19:39:22.386Z,99832.41
2023-03-30T19:42:26.655Z,99842.44
2023-03-30T19:45:28.976Z,99828.50
2023-03-30T19:48:31.263Z,99835.47
2023-03-30T19:51:33.782Z,99843.91
2023-03-30T19:54:36.406Z,99827.06
2023-03-30T19:57:38.878Z,99842.34
2023-03-30T20:00:43.624Z,99837.34
2023-03-30T20:03:46.140Z,99841.16
2023-03-30T20:06:48.530Z,99837.75
2023-03-30T20:09:51.111Z,99834.31
2023-03-30T20:12:53.683Z,99850.50
2023-03-30T20:15:56.313Z,99844.56
2023-03-30T20:19:00.130Z,99836.41
2023-03-30T20:22:02.642Z,99826.38
2023-03-30T20:25:07.673Z,99835.63
2023-03-30T20:28:10.086Z,99838.09
2023-03-30T20:31:13.851Z,99834.47
2023-03-30T20:34:16.544Z,99834.59
2023-03-30T20:37:18.923Z,99815.03
2023-03-30T20:40:21.231Z,99809.75
2023-03-30T20:43:26.180Z,99798.97
2023-03-30T20:46:35.625Z,99803.03
2023-03-30T20:49:41.858Z,99811.03
2023-03-30T20:52:44.245Z,99820.03
2023-03-30T20:55:47.233Z,99828.28
2023-03-30T20:58:49.812Z,99818.47
2023-03-30T21:01:52.379Z,99815.69
2023-03-30T21:04:56.931Z,99823.91
2023-03-30T21:08:00.208Z,99817.69
2023-03-30T21:11:02.797Z,99797.66
2023-03-30T21:14:06.707Z,99798.00
2023-03-30T21:17:09.638Z,99792.06
2023-03-30T21:20:12.511Z,99786.22
2023-03-30T21:23:14.856Z,99772.72
2023-03-30T21:26:19.911Z,99771.91
2023-03-30T21:29:22.802Z,99762.34
2023-03-30T21:32:25.453Z,99756.06
2023-03-30T21:35:28.850Z,99773.84
2023-03-30T21:38:31.640Z,99747.31
2023-03-30T21:41:34.038Z,99737.25
2023-03-30T21:44:36.790Z,99746.94
2023-03-30T21:47:40.182Z,99743.19
2023-03-30T21:50:42.524Z,99755.59
2023-03-30T21:53:46.407Z,99783.63
2023-03-30T21:56:49.131Z,99780.06
2023-03-30T21:59:51.674Z,99793.97
2023-03-30T22:02:54.083Z,99781.38
2023-03-30T22:06:01.373Z,99786.47
2023-03-30T22:09:03.894Z,99776.66
2023-03-30T22:12:06.761Z,99779.75
2023-03-30T22:15:09.432Z,99801.19
2023-03-30T22:18:11.884Z,99807.47
2023-03-30T22:21:17.489Z,99810.38
2023-03-30T22:24:20.406Z,99797.94
2023-03-30T22:27:23.219Z,99799.31
2023-03-30T22:30:25.530Z,99788.41
2023-03-30T22:33:29.117Z,99798.94
2023-03-30T22:36:31.506Z,99793.00
2023-03-30T22:39:33.901Z,99783.81
2023-03-30T22:42:36.187Z,99789.09
2023-03-30T22:45:39.286Z,99783.69
2023-03-30T22:48:41.805Z,99776.44
2023-03-30T22:51:52.042Z,99782.88
2023-03-30T22:54:55.436Z,99781.75
2023-03-30T22:57:57.898Z,99797.09
2023-03-30T23:01:01.266Z,99795.50
2023-03-30T23:04:05.707Z,99789.56
2023-03-30T23:07:10.478Z,99783.97
2023-03-30T23:10:15.496Z,99772.03
2023-03-30T23:13:17.790Z,99773.63
2023-03-30T23:16:20.060Z,99770.22
2023-03-30T23:19:22.466Z,99782.53
2023-03-30T23:22:26.868Z,99781.75
2023-03-30T23:25:29.167Z,99778.22
2023-03-30T23:28:31.598Z,99773.97
2023-03-30T23:31:34.833Z,99761.91
2023-03-30T23:34:37.282Z,99774.72
2023-03-30T23:37:40.272Z,99771.22
2023-03-30T23:40:42.913Z,99761.38
2023-03-30T23:43:46.390Z,99773.63
2023-03-30T23:46:49.752Z,99783.94
2023-03-30T23:49:52.113Z,99760.28
2023-03-30T23:52:54.450Z,99768.28
2023-03-30T23:55:58.359Z,99771.06
2023-03-30T23:59:01.150Z,99775.59
